Time;durP1;ratioP1;P1;durP2;ratioP2;P2;SDS_P1;SDS_P2;PMS_P1;PMS_P2;Temp;Humidity;BMP_temperature;BMP_pressure;BME280_temperature;BME280_humidity;BME280_pressure;Samples;Min_cycle;Max_cycle;Signal;HPM_P1;HPM_P2
2023/09/17 00:00:13;;;;;;;8.50;3.85;;;20.80;99.90;;;;;;4897698;29;20064;-67
2023/09/17 00:02:39;;;;;;;10.63;4.43;;;20.70;99.90;;;;;;4898046;29;20047;-67
2023/09/17 00:05:05;;;;;;;14.75;4.60;;;20.70;99.90;;;;;;4898460;29;20105;-67
2023/09/17 00:07:31;;;;;;;8.07;4.57;;;20.70;99.90;;;;;;4912677;29;20442;-67
2023/09/17 00:09:56;;;;;;;11.65;4.15;;;20.70;99.90;;;;;;4897151;29;20064;-67
2023/09/17 00:12:22;;;;;;;10.13;4.57;;;20.70;99.90;;;;;;4898251;29;20107;-67
2023/09/17 00:14:49;;;;;;;11.73;3.88;;;20.60;99.90;;;;;;4898198;29;20843;-67
2023/09/17 00:17:14;;;;;;;7.95;3.38;;;20.60;99.90;;;;;;4896781;29;20092;-67
2023/09/17 00:19:40;;;;;;;8.15;4.50;;;20.60;99.90;;;;;;4898326;29;20040;-67
2023/09/17 00:22:09;;;;;;;9.38;4.43;;;20.50;99.90;;;;;;4895340;29;20496;-67
2023/09/17 00:24:35;;;;;;;10.50;4.53;;;20.50;99.90;;;;;;4896797;29;20029;-67
2023/09/17 00:27:01;;;;;;;9.50;5.10;;;20.50;99.90;;;;;;4896765;29;20028;-67
2023/09/17 00:29:27;;;;;;;8.00;4.03;;;20.50;99.90;;;;;;4898276;29;20127;-67
2023/09/17 00:31:53;;;;;;;7.35;4.43;;;20.40;99.90;;;;;;4897937;29;20434;-67
2023/09/17 00:34:18;;;;;;;10.13;4.65;;;20.40;99.90;;;;;;4896596;29;20104;-67
2023/09/17 00:36:45;;;;;;;6.53;3.75;;;20.50;99.90;;;;;;4897748;29;20092;-67
2023/09/17 00:39:10;;;;;;;8.82;4.72;;;20.40;99.90;;;;;;4897895;29;20366;-67
2023/09/17 00:41:36;;;;;;;10.88;4.47;;;20.40;99.90;;;;;;4894929;29;20029;-67
2023/09/17 00:44:02;;;;;;;7.88;4.53;;;20.50;99.90;;;;;;4921501;29;20028;-67
2023/09/17 00:46:31;;;;;;;9.55;4.47;;;20.50;99.90;;;;;;4926720;29;20032;-67
2023/09/17 00:48:58;;;;;;;8.57;4.35;;;20.50;99.90;;;;;;4896691;29;20107;-68
2023/09/17 00:51:25;;;;;;;7.72;4.05;;;20.50;99.90;;;;;;4896260;29;20123;-67
2023/09/17 00:53:55;;;;;;;7.75;4.25;;;20.60;99.90;;;;;;4897123;29;20032;-67
2023/09/17 00:56:22;;;;;;;7.32;3.90;;;20.60;99.90;;;;;;4894564;29;20033;-67
2023/09/17 00:58:50;;;;;;;10.27;4.22;;;20.60;99.90;;;;;;4923714;29;20712;-67
2023/09/17 01:01:16;;;;;;;5.45;3.50;;;20.60;99.90;;;;;;4914535;29;20052;-67
2023/09/17 01:03:42;;;;;;;6.65;3.72;;;20.40;99.90;;;;;;4897141;29;20107;-67
2023/09/17 01:06:11;;;;;;;10.10;4.25;;;20.30;99.90;;;;;;4891311;29;20044;-67
2023/09/17 01:08:39;;;;;;;7.85;4.57;;;20.20;99.90;;;;;;4897058;29;20035;-67
2023/09/17 01:11:07;;;;;;;8.63;4.55;;;20.20;99.90;;;;;;4896836;29;20032;-67
2023/09/17 01:13:39;;;;;;;5.97;3.40;;;20.10;99.90;;;;;;4895460;29;20044;-67
2023/09/17 01:16:05;;;;;;;5.95;3.33;;;20.10;99.90;;;;;;4896888;29;20036;-67
2023/09/17 01:18:33;;;;;;;5.90;3.15;;;20.10;99.90;;;;;;4895945;29;20158;-67
2023/09/17 01:21:16;;;;;;;7.88;3.65;;;20.10;99.90;;;;;;4895219;29;20365;-68
2023/09/17 01:23:51;;;;;;;7.32;4.13;;;20.00;99.90;;;;;;4895536;29;20461;-68
2023/09/17 01:26:29;;;;;;;7.57;3.45;;;20.20;99.90;;;;;;4893013;29;20033;-68
2023/09/17 01:28:56;;;;;;;6.88;4.32;;;20.20;99.90;;;;;;4919051;29;20124;-68
2023/09/17 01:31:25;;;;;;;10.02;4.18;;;20.10;99.90;;;;;;4896937;29;20089;-68
2023/09/17 01:33:51;;;;;;;7.38;3.42;;;20.10;99.90;;;;;;4895827;29;20063;-68
2023/09/17 01:36:35;;;;;;;6.78;3.95;;;20.00;99.90;;;;;;4911404;29;20044;-68
2023/09/17 01:39:22;;;;;;;9.52;3.40;;;19.90;99.90;;;;;;4896191;29;20037;-68
2023/09/17 01:41:49;;;;;;;6.68;3.63;;;19.90;99.90;;;;;;4909180;29;20033;-68
2023/09/17 01:44:16;;;;;;;5.97;3.30;;;19.80;99.90;;;;;;4895478;29;20040;-68
2023/09/17 01:46:42;;;;;;;7.78;3.33;;;19.80;99.90;;;;;;4894975;29;20438;-68
2023/09/17 01:49:10;;;;;;;5.35;3.17;;;19.80;99.90;;;;;;4897236;29;20103;-68
2023/09/17 01:51:38;;;;;;;7.95;4.03;;;19.80;99.90;;;;;;4895299;29;20494;-68
2023/09/17 01:54:05;;;;;;;7.15;3.20;;;19.70;99.90;;;;;;4895453;29;20099;-68
2023/09/17 01:56:34;;;;;;;6.95;3.95;;;19.70;99.90;;;;;;4894965;29;20032;-68
2023/09/17 01:59:00;;;;;;;6.38;3.53;;;19.70;99.90;;;;;;4895597;29;20033;-68
2023/09/17 02:01:27;;;;;;;8.73;3.55;;;19.60;99.90;;;;;;4896409;29;20032;-68
2023/09/17 02:03:53;;;;;;;6.07;3.72;;;19.60;99.90;;;;;;4895173;29;20034;-68
2023/09/17 02:06:19;;;;;;;6.80;3.30;;;19.60;99.90;;;;;;4894303;29;20037;-68
2023/09/17 02:08:44;;;;;;;5.55;3.17;;;19.60;99.90;;;;;;4909801;29;20043;-69
2023/09/17 02:11:10;;;;;;;11.98;4.60;;;19.60;99.90;;;;;;4893469;29;20080;-69
2023/09/17 02:13:36;;;;;;;10.75;3.90;;;19.70;99.90;;;;;;4895062;29;20040;-68
2023/09/17 02:16:02;;;;;;;7.57;4.10;;;19.70;99.90;;;;;;4896613;29;20046;-69
2023/09/17 02:18:28;;;;;;;7.25;3.83;;;19.70;99.90;;;;;;4896103;29;20060;-69
2023/09/17 02:20:54;;;;;;;7.32;3.67;;;19.80;99.90;;;;;;4896692;29;20075;-69
2023/09/17 02:23:19;;;;;;;10.57;4.88;;;19.80;99.90;;;;;;4895826;29;20040;-68
2023/09/17 02:25:46;;;;;;;6.97;4.03;;;19.80;99.90;;;;;;4896517;29;20029;-68
2023/09/17 02:28:13;;;;;;;10.70;4.47;;;19.80;99.90;;;;;;4895874;29;20045;-67
2023/09/17 02:30:39;;;;;;;9.93;4.60;;;19.80;99.90;;;;;;4896196;29;20032;-67
2023/09/17 02:33:06;;;;;;;7.32;4.30;;;19.80;99.90;;;;;;4893671;29;20044;-68
2023/09/17 02:35:33;;;;;;;5.60;3.58;;;19.80;99.90;;;;;;4895399;29;20044;-68
2023/09/17 02:37:58;;;;;;;8.90;4.70;;;19.80;99.90;;;;;;4889806;29;20037;-67
2023/09/17 02:40:24;;;;;;;9.70;4.38;;;19.80;99.90;;;;;;4896191;29;20032;-67
2023/09/17 02:42:50;;;;;;;8.80;4.18;;;19.80;99.90;;;;;;4895635;29;20035;-67
2023/09/17 02:45:16;;;;;;;7.45;4.50;;;19.80;99.90;;;;;;4895343;29;20545;-67
2023/09/17 02:47:42;;;;;;;8.60;4.20;;;19.80;99.90;;;;;;4889378;29;20036;-67
2023/09/17 02:50:09;;;;;;;9.68;4.50;;;19.80;99.90;;;;;;4910680;29;20039;-67
2023/09/17 02:52:35;;;;;;;9.75;4.57;;;19.80;99.90;;;;;;4892117;29;20040;-67
2023/09/17 02:55:04;;;;;;;8.57;4.60;;;19.80;99.90;;;;;;4902634;29;20029;-68
2023/09/17 02:57:30;;;;;;;11.60;4.35;;;19.90;99.90;;;;;;4895896;29;20025;-67
2023/09/17 02:59:57;;;;;;;7.13;4.00;;;19.90;99.90;;;;;;4895056;29;20499;-68
2023/09/17 03:02:23;;;;;;;10.38;4.82;;;19.90;99.90;;;;;;4895667;29;20387;-68
2023/09/17 03:04:52;;;;;;;7.80;4.70;;;19.90;99.90;;;;;;4909936;29;20084;-67
2023/09/17 03:07:18;;;;;;;6.97;4.10;;;19.90;99.90;;;;;;4904526;29;20025;-67
2023/09/17 03:09:45;;;;;;;9.73;4.57;;;19.80;99.90;;;;;;4895182;29;20036;-68
2023/09/17 03:12:11;;;;;;;10.40;4.97;;;19.90;99.90;;;;;;4905709;29;20057;-68
2023/09/17 03:14:38;;;;;;;7.55;4.20;;;19.90;99.90;;;;;;4893643;29;20032;-68
2023/09/17 03:17:05;;;;;;;7.82;4.47;;;20.00;99.90;;;;;;4890877;29;20032;-68
2023/09/17 03:19:31;;;;;;;8.52;4.57;;;20.00;99.90;;;;;;4904984;29;20114;-67
2023/09/17 03:21:57;;;;;;;8.38;4.60;;;20.00;99.90;;;;;;4895882;29;20797;-67
2023/09/17 03:24:23;;;;;;;12.55;4.68;;;20.10;99.90;;;;;;4894337;29;20116;-67
2023/09/17 03:26:49;;;;;;;8.43;4.82;;;20.00;99.90;;;;;;4895459;29;20020;-69
2023/09/17 03:29:15;;;;;;;7.28;4.65;;;20.00;99.90;;;;;;4896162;29;20044;-68
2023/09/17 03:31:41;;;;;;;10.00;4.70;;;20.00;99.90;;;;;;4895506;29;20048;-68
2023/09/17 03:34:08;;;;;;;8.15;4.25;;;19.90;99.90;;;;;;4909721;29;20482;-68
2023/09/17 03:36:37;;;;;;;7.93;4.80;;;19.90;99.90;;;;;;4894445;29;20444;-68
2023/09/17 03:39:06;;;;;;;9.50;4.30;;;19.80;99.90;;;;;;4900278;29;20048;-68
2023/09/17 03:41:32;;;;;;;10.07;4.68;;;19.80;99.90;;;;;;4892814;29;20032;-68
2023/09/17 03:43:58;;;;;;;10.00;4.93;;;19.80;99.90;;;;;;4918083;29;20035;-68
2023/09/17 03:46:24;;;;;;;8.85;5.32;;;19.80;99.90;;;;;;4898983;29;20041;-68
2023/09/17 03:48:50;;;;;;;12.63;4.75;;;19.70;99.90;;;;;;4898320;29;20497;-68
2023/09/17 03:51:16;;;;;;;8.82;4.50;;;19.70;99.90;;;;;;4898782;29;20075;-68
2023/09/17 03:53:43;;;;;;;8.00;4.47;;;19.70;99.90;;;;;;4896754;29;20111;-69
2023/09/17 03:56:11;;;;;;;9.80;5.20;;;19.70;99.90;;;;;;4895292;29;20033;-69
2023/09/17 03:58:37;;;;;;;17.42;5.32;;;19.70;99.90;;;;;;4918080;29;20557;-68
2023/09/17 04:01:06;;;;;;;6.55;4.60;;;19.70;99.90;;;;;;4898286;29;20036;-68
2023/09/17 04:03:32;;;;;;;10.20;5.53;;;19.60;99.90;;;;;;4897744;29;20041;-68
2023/09/17 04:05:58;;;;;;;10.23;5.53;;;19.60;99.90;;;;;;4898762;29;20418;-68
2023/09/17 04:08:24;;;;;;;9.35;4.72;;;19.70;99.90;;;;;;4898161;29;20041;-69
2023/09/17 04:10:56;;;;;;;10.88;5.45;;;19.70;99.90;;;;;;4898315;29;20128;-68
2023/09/17 04:13:21;;;;;;;11.60;6.05;;;19.60;99.90;;;;;;4896539;29;20039;-68
2023/09/17 04:15:49;;;;;;;10.63;5.78;;;19.60;99.90;;;;;;4896964;29;20409;-68
2023/09/17 04:18:14;;;;;;;12.10;5.40;;;19.70;99.90;;;;;;4896666;29;20477;-68
2023/09/17 04:20:40;;;;;;;10.13;5.30;;;19.60;99.90;;;;;;4898359;29;20169;-68
2023/09/17 04:23:06;;;;;;;10.48;4.70;;;19.60;99.90;;;;;;4896330;29;20036;-68
2023/09/17 04:25:34;;;;;;;9.07;5.10;;;19.60;99.90;;;;;;4896856;29;20354;-68
2023/09/17 04:28:00;;;;;;;10.98;5.75;;;19.50;99.90;;;;;;4890094;29;20032;-68
2023/09/17 04:30:26;;;;;;;11.23;5.50;;;19.60;99.90;;;;;;4898036;29;20100;-68
2023/09/17 04:32:54;;;;;;;9.38;5.18;;;19.60;99.90;;;;;;4895991;29;20064;-68
2023/09/17 04:35:20;;;;;;;9.38;5.53;;;19.50;99.90;;;;;;4898055;29;20055;-68
2023/09/17 04:37:49;;;;;;;13.23;5.85;;;19.60;99.90;;;;;;4897525;29;20393;-68
2023/09/17 04:40:17;;;;;;;9.50;4.95;;;19.50;99.90;;;;;;4896448;29;20126;-68
2023/09/17 04:42:48;;;;;;;9.43;5.43;;;19.60;99.90;;;;;;4895136;29;20037;-69
2023/09/17 04:45:34;;;;;;;8.90;5.28;;;19.50;99.90;;;;;;4897753;29;20107;-68
2023/09/17 04:48:00;;;;;;;11.52;5.70;;;19.50;99.90;;;;;;4889332;29;20047;-68
2023/09/17 04:50:25;;;;;;;9.05;5.30;;;19.60;99.90;;;;;;4896328;29;20025;-68
2023/09/17 04:52:51;;;;;;;10.88;4.82;;;19.50;99.90;;;;;;4897166;29;20123;-69
2023/09/17 04:55:17;;;;;;;9.05;5.18;;;19.50;99.90;;;;;;4897095;29;20382;-68
2023/09/17 04:57:43;;;;;;;15.73;5.30;;;19.50;99.90;;;;;;4896381;29;20482;-68
2023/09/17 05:00:12;;;;;;;9.15;4.85;;;19.50;99.90;;;;;;4894845;29;20108;-68
2023/09/17 05:02:39;;;;;;;9.00;4.47;;;19.60;99.90;;;;;;4896691;29;20031;-69
2023/09/17 05:05:06;;;;;;;7.28;4.70;;;19.60;99.90;;;;;;4886636;29;20041;-68
2023/09/17 05:07:32;;;;;;;8.80;5.25;;;19.70;99.90;;;;;;4891117;29;20024;-69
2023/09/17 05:09:58;;;;;;;8.23;4.57;;;19.70;99.90;;;;;;4904777;29;20115;-68
2023/09/17 05:12:24;;;;;;;13.70;5.03;;;19.80;99.90;;;;;;4890369;29;20070;-67
2023/09/17 05:14:49;;;;;;;8.60;5.05;;;19.80;99.90;;;;;;4894568;29;20139;-68
2023/09/17 05:17:15;;;;;;;12.43;4.70;;;19.90;99.90;;;;;;4891327;29;20037;-68
2023/09/17 05:19:41;;;;;;;9.20;4.70;;;19.90;99.90;;;;;;4890829;29;20112;-68
2023/09/17 05:22:07;;;;;;;12.88;4.53;;;19.90;99.90;;;;;;4886658;29;20036;-68
2023/09/17 05:24:33;;;;;;;9.23;5.00;;;19.90;99.90;;;;;;4896067;29;20466;-68
2023/09/17 05:26:58;;;;;;;8.65;4.80;;;19.80;99.90;;;;;;4896517;29;20040;-68
2023/09/17 05:29:24;;;;;;;10.68;4.25;;;19.90;99.90;;;;;;4896717;29;20042;-68
2023/09/17 05:31:50;;;;;;;8.50;5.18;;;19.90;99.90;;;;;;4894671;29;20040;-68
2023/09/17 05:34:15;;;;;;;8.05;4.32;;;19.80;99.90;;;;;;4913808;29;20071;-68
2023/09/17 05:36:41;;;;;;;9.82;4.10;;;19.80;99.90;;;;;;4896349;29;20039;-68
2023/09/17 05:39:08;;;;;;;8.95;4.15;;;19.80;99.90;;;;;;4895526;29;20036;-68
2023/09/17 05:41:34;;;;;;;6.30;4.07;;;19.80;99.90;;;;;;4918478;29;20032;-68
2023/09/17 05:44:03;;;;;;;8.75;4.85;;;19.70;99.90;;;;;;4910381;29;20397;-68
2023/09/17 05:46:31;;;;;;;8.93;4.47;;;19.70;99.90;;;;;;4896573;29;20042;-68
2023/09/17 05:48:56;;;;;;;8.77;4.63;;;19.80;99.90;;;;;;4888725;29;20132;-67
2023/09/17 05:51:22;;;;;;;6.70;4.25;;;19.70;99.90;;;;;;4895051;29;20537;-67
2023/09/17 05:53:48;;;;;;;6.53;4.20;;;19.80;99.90;;;;;;4895974;29;20116;-68
2023/09/17 05:56:14;;;;;;;11.00;4.60;;;19.80;99.90;;;;;;4910570;29;20046;-67
2023/09/17 05:58:40;;;;;;;9.73;4.93;;;19.80;99.90;;;;;;4896032;29;20035;-67
2023/09/17 06:01:05;;;;;;;7.60;3.88;;;19.90;99.90;;;;;;4895845;29;20071;-67
2023/09/17 06:03:32;;;;;;;8.65;5.00;;;19.90;99.90;;;;;;4896010;29;20048;-67
2023/09/17 06:05:58;;;;;;;5.60;3.80;;;20.00;99.90;;;;;;4896059;29;20036;-67
2023/09/17 06:08:28;;;;;;;9.48;4.40;;;20.00;99.90;;;;;;4896413;29;20436;-67
2023/09/17 06:10:55;;;;;;;8.32;3.67;;;20.00;99.90;;;;;;4895601;29;20092;-68
2023/09/17 06:13:21;;;;;;;8.85;4.53;;;20.00;99.90;;;;;;4895901;29;20047;-68
2023/09/17 06:15:47;;;;;;;6.40;3.58;;;20.10;99.90;;;;;;4895609;29;20067;-68
2023/09/17 06:18:12;;;;;;;7.18;3.67;;;20.10;99.90;;;;;;4894768;29;20064;-68
2023/09/17 06:20:39;;;;;;;11.45;4.18;;;20.10;99.90;;;;;;4891308;29;20029;-68
2023/09/17 06:23:05;;;;;;;6.75;3.60;;;20.20;99.90;;;;;;4895916;29;20036;-68
2023/09/17 06:25:31;;;;;;;6.15;3.60;;;20.10;99.90;;;;;;4888229;29;20029;-68
2023/09/17 06:27:56;;;;;;;7.40;3.67;;;20.20;99.90;;;;;;4896054;29;20040;-69
2023/09/17 06:30:22;;;;;;;13.15;4.03;;;20.20;99.90;;;;;;4891192;29;20044;-70
2023/09/17 06:32:48;;;;;;;5.25;3.25;;;20.20;99.90;;;;;;4897063;29;20047;-67
2023/09/17 06:35:14;;;;;;;7.78;4.63;;;20.30;99.90;;;;;;4889616;29;20032;-66
2023/09/17 06:37:40;;;;;;;7.53;4.10;;;20.30;99.90;;;;;;4912226;29;20025;-68
2023/09/17 06:40:09;;;;;;;8.85;4.68;;;20.40;99.90;;;;;;4895616;29;20032;-67
2023/09/17 06:42:35;;;;;;;7.00;3.95;;;20.50;99.90;;;;;;4894546;29;20039;-67
2023/09/17 06:45:00;;;;;;;10.40;4.82;;;20.60;99.90;;;;;;4895269;29;20032;-67
2023/09/17 06:47:26;;;;;;;6.78;3.75;;;20.60;99.90;;;;;;4895928;29;20035;-67
2023/09/17 06:49:52;;;;;;;8.30;3.97;;;20.70;99.90;;;;;;4889430;29;20472;-67
2023/09/17 06:52:17;;;;;;;5.72;3.40;;;20.80;99.90;;;;;;4894766;29;20045;-67
2023/09/17 06:54:43;;;;;;;6.63;3.83;;;20.90;99.90;;;;;;4894965;29;20033;-67
2023/09/17 06:57:09;;;;;;;13.05;4.60;;;20.80;99.90;;;;;;4895795;29;20115;-67
2023/09/17 06:59:35;;;;;;;7.40;4.25;;;20.80;99.90;;;;;;4895091;29;20096;-66
2023/09/17 07:02:01;;;;;;;6.07;4.00;;;20.90;99.90;;;;;;4895106;29;20032;-66
2023/09/17 07:04:27;;;;;;;6.68;3.53;;;20.90;99.90;;;;;;4909103;29;20040;-66
2023/09/17 07:06:53;;;;;;;7.90;3.60;;;21.00;99.90;;;;;;4902753;29;20060;-66
2023/09/17 07:09:19;;;;;;;4.82;2.90;;;21.00;99.90;;;;;;4892110;29;20142;-66
2023/09/17 07:11:44;;;;;;;6.60;3.30;;;21.10;99.90;;;;;;4891667;29;20143;-71
2023/09/17 07:14:10;;;;;;;6.85;3.38;;;21.10;99.90;;;;;;4893077;29;20488;-66
2023/09/17 07:16:37;;;;;;;5.47;3.25;;;21.20;99.90;;;;;;4893701;29;20042;-66
2023/09/17 07:19:06;;;;;;;6.50;3.90;;;21.20;99.90;;;;;;4895900;29;20132;-66
2023/09/17 07:21:32;;;;;;;6.65;3.55;;;21.20;99.90;;;;;;4899045;29;20473;-66
2023/09/17 07:23:58;;;;;;;7.20;3.60;;;21.30;99.90;;;;;;4898445;29;20041;-67
2023/09/17 07:26:23;;;;;;;8.70;4.00;;;21.30;99.90;;;;;;4897818;29;20036;-66
2023/09/17 07:28:49;;;;;;;6.25;3.63;;;21.40;99.90;;;;;;4893773;29;20033;-66
2023/09/17 07:31:15;;;;;;;7.00;3.53;;;21.40;99.90;;;;;;4898047;29;20120;-67
2023/09/17 07:33:42;;;;;;;5.70;3.33;;;21.50;99.90;;;;;;4892124;29;20044;-67
2023/09/17 07:36:09;;;;;;;6.15;3.35;;;21.50;99.90;;;;;;4898862;29;20037;-67
2023/09/17 07:38:35;;;;;;;6.13;3.22;;;21.60;99.90;;;;;;4892646;29;20362;-67
2023/09/17 07:41:01;;;;;;;6.85;3.90;;;21.60;99.90;;;;;;4898463;29;20040;-67
2023/09/17 07:43:27;;;;;;;5.97;3.47;;;21.70;99.90;;;;;;4895005;29;20158;-67
2023/09/17 07:45:53;;;;;;;6.32;3.60;;;21.70;99.90;;;;;;4896364;29;20063;-67
2023/09/17 07:48:20;;;;;;;6.78;3.78;;;21.80;99.90;;;;;;4898029;29;20036;-68
2023/09/17 07:50:59;;;;;;;6.03;2.85;;;21.90;99.90;;;;;;4898242;29;20079;-68
2023/09/17 07:53:25;;;;;;;5.75;3.22;;;21.90;99.90;;;;;;4897933;29;20040;-66
2023/09/17 07:55:52;;;;;;;8.07;2.85;;;22.00;99.90;;;;;;4897254;29;20029;-67
2023/09/17 07:58:17;;;;;;;8.13;3.50;;;22.10;99.90;;;;;;4898280;29;20032;-67
2023/09/17 08:00:45;;;;;;;8.52;3.17;;;22.20;99.90;;;;;;4898329;29;20029;-68
2023/09/17 08:03:13;;;;;;;6.57;3.10;;;22.30;99.90;;;;;;4893819;29;20025;-67
2023/09/17 08:05:40;;;;;;;6.78;3.42;;;22.40;99.90;;;;;;4898476;29;20043;-67
2023/09/17 08:08:07;;;;;;;6.15;2.97;;;22.40;99.90;;;;;;4898199;29;20036;-67
2023/09/17 08:10:34;;;;;;;5.40;2.97;;;22.40;99.90;;;;;;4898276;29;20042;-67
2023/09/17 08:12:59;;;;;;;7.47;3.10;;;22.60;99.90;;;;;;4897719;29;20123;-67
2023/09/17 08:15:27;;;;;;;6.50;3.53;;;22.70;99.90;;;;;;4898421;29;20077;-67
2023/09/17 08:17:53;;;;;;;5.32;3.13;;;22.60;99.90;;;;;;4897859;29;20126;-67
2023/09/17 08:20:19;;;;;;;5.35;2.60;;;22.60;99.90;;;;;;4896705;29;20111;-67
2023/09/17 08:22:45;;;;;;;5.25;3.20;;;22.80;99.90;;;;;;4898176;29;20076;-67
2023/09/17 08:25:11;;;;;;;6.28;3.25;;;22.80;99.90;;;;;;4894187;29;20560;-67
2023/09/17 08:27:39;;;;;;;5.60;3.08;;;22.80;99.90;;;;;;4898009;29;20500;-67
2023/09/17 08:30:11;;;;;;;6.60;3.45;;;22.90;99.90;;;;;;4897022;29;20363;-67
2023/09/17 08:32:39;;;;;;;9.10;2.60;;;22.90;99.90;;;;;;4897592;29;20077;-67
2023/09/17 08:35:07;;;;;;;10.38;3.13;;;23.00;99.90;;;;;;4895325;29;20028;-67
2023/09/17 08:37:37;;;;;;;4.80;3.13;;;23.00;99.90;;;;;;4897830;29;20032;-67
2023/09/17 08:40:10;;;;;;;8.35;3.17;;;23.00;99.90;;;;;;4893633;29;20029;-67
2023/09/17 08:42:40;;;;;;;5.65;3.13;;;23.00;99.90;;;;;;4896235;29;20039;-67
2023/09/17 08:45:07;;;;;;;5.07;2.70;;;23.10;99.90;;;;;;4896229;29;20112;-67
2023/09/17 08:47:33;;;;;;;5.22;3.13;;;23.10;99.90;;;;;;4896063;29;20370;-67
2023/09/17 08:49:59;;;;;;;6.45;3.05;;;23.10;99.90;;;;;;4896433;29;20033;-67
2023/09/17 08:52:28;;;;;;;6.95;3.53;;;23.20;99.90;;;;;;4897345;29;20036;-68
2023/09/17 08:54:55;;;;;;;5.72;3.30;;;23.30;99.90;;;;;;4926273;29;20032;-67
2023/09/17 08:57:23;;;;;;;3.67;2.15;;;23.30;99.90;;;;;;4880805;29;20048;-67
2023/09/17 09:00:09;;;;;;;5.22;2.40;;;23.40;99.90;;;;;;4895366;29;20036;-67
2023/09/17 09:02:52;;;;;;;8.85;2.45;;;23.50;99.90;;;;;;4895807;29;20023;-67
2023/09/17 09:05:22;;;;;;;4.15;2.17;;;23.50;99.90;;;;;;4896120;29;20446;-67
2023/09/17 09:07:49;;;;;;;5.32;2.50;;;23.70;99.90;;;;;;4895473;29;20116;-67
2023/09/17 09:10:18;;;;;;;5.20;2.75;;;23.70;99.90;;;;;;4895495;29;20381;-67
2023/09/17 09:12:45;;;;;;;5.35;3.03;;;23.80;99.90;;;;;;4897195;29;20380;-67
2023/09/17 09:15:11;;;;;;;4.40;2.22;;;23.80;99.90;;;;;;4919523;29;20108;-67
2023/09/17 09:17:41;;;;;;;4.07;2.47;;;23.90;99.90;;;;;;4897388;29;20027;-67
2023/09/17 09:20:10;;;;;;;4.63;2.47;;;24.00;99.90;;;;;;4896524;29;20081;-67
2023/09/17 09:22:37;;;;;;;6.88;1.90;;;24.30;99.90;;;;;;4896902;29;20221;-67
2023/09/17 09:25:06;;;;;;;5.10;2.45;;;24.40;99.90;;;;;;4895187;29;20040;-67
2023/09/17 09:27:32;;;;;;;5.05;2.17;;;24.50;99.90;;;;;;4895539;29;20182;-67
2023/09/17 09:29:58;;;;;;;6.20;2.22;;;24.60;99.90;;;;;;4893622;29;20044;-67
2023/09/17 09:32:24;;;;;;;5.10;2.10;;;24.70;99.90;;;;;;4895463;29;20062;-67
2023/09/17 09:34:51;;;;;;;5.28;2.38;;;24.90;99.90;;;;;;4892930;29;20514;-67
2023/09/17 09:37:23;;;;;;;3.17;2.20;;;25.00;99.90;;;;;;4895565;29;20028;-67
2023/09/17 09:39:49;;;;;;;3.35;1.58;;;25.10;99.90;;;;;;4896160;29;20135;-67
2023/09/17 09:42:14;;;;;;;2.33;1.42;;;25.30;99.90;;;;;;4913887;29;20032;-67
2023/09/17 09:44:40;;;;;;;2.42;1.63;;;25.50;99.90;;;;;;4896150;29;20084;-67
2023/09/17 09:47:06;;;;;;;5.68;1.98;;;25.70;99.90;;;;;;4896733;29;20063;-68
2023/09/17 09:49:44;;;;;;;4.10;1.65;;;25.50;99.90;;;;;;4912281;29;20035;-67
2023/09/17 09:52:17;;;;;;;4.38;2.22;;;25.70;99.90;;;;;;4895243;29;20497;-67
2023/09/17 09:54:45;;;;;;;7.82;2.47;;;25.90;99.90;;;;;;4895514;29;20074;-67
2023/09/17 09:57:18;;;;;;;2.03;1.23;;;26.00;99.90;;;;;;4896423;29;20024;-67
2023/09/17 09:59:46;;;;;;;3.97;1.60;;;26.30;99.90;;;;;;4892683;29;20120;-67
2023/09/17 10:02:15;;;;;;;4.45;1.73;;;26.40;99.90;;;;;;4896422;29;20442;-67
2023/09/17 10:04:44;;;;;;;2.45;1.33;;;26.60;99.90;;;;;;4893897;29;20470;-67
2023/09/17 10:07:10;;;;;;;3.40;1.88;;;26.70;99.90;;;;;;4916900;29;20104;-67
2023/09/17 10:09:36;;;;;;;4.20;1.80;;;26.60;99.90;;;;;;4899780;29;20131;-67
2023/09/17 10:12:03;;;;;;;2.35;1.45;;;26.70;99.90;;;;;;4886510;29;20499;-67
2023/09/17 10:14:34;;;;;;;3.00;1.58;;;26.80;99.90;;;;;;4906177;29;20028;-68
2023/09/17 10:17:01;;;;;;;2.47;1.40;;;26.90;99.90;;;;;;4888763;29;20044;-67
2023/09/17 10:19:31;;;;;;;6.10;2.03;;;26.60;99.90;;;;;;4895939;29;20024;-67
2023/09/17 10:21:58;;;;;;;4.28;1.10;;;26.50;99.90;;;;;;4890271;29;20029;-68
2023/09/17 10:24:26;;;;;;;2.00;1.15;;;26.80;99.90;;;;;;4895321;29;20301;-68
2023/09/17 10:26:53;;;;;;;4.45;1.58;;;26.90;99.90;;;;;;4894461;29;21533;-67
2023/09/17 10:29:21;;;;;;;3.30;1.83;;;27.10;99.90;;;;;;4910569;29;20461;-67
2023/09/17 10:31:48;;;;;;;6.47;1.65;;;27.20;99.90;;;;;;4894226;29;20477;-67
2023/09/17 10:34:16;;;;;;;6.80;1.70;;;27.20;99.90;;;;;;4885046;29;20580;-67
2023/09/17 10:36:42;;;;;;;2.47;1.58;;;27.30;99.90;;;;;;4893275;29;20039;-68
2023/09/17 10:39:10;;;;;;;4.15;1.70;;;27.50;99.90;;;;;;4891239;29;20036;-67
2023/09/17 10:41:40;;;;;;;6.20;1.58;;;27.70;99.90;;;;;;4872738;29;20052;-68
2023/09/17 10:44:07;;;;;;;2.72;1.63;;;27.90;99.40;;;;;;4895514;29;20402;-68
2023/09/17 10:46:38;;;;;;;3.08;1.50;;;27.90;99.80;;;;;;4895389;29;20421;-68
2023/09/17 10:49:05;;;;;;;6.38;2.80;;;28.00;99.80;;;;;;4895842;29;20036;-68
2023/09/17 10:51:33;;;;;;;9.63;1.83;;;28.00;98.40;;;;;;4888750;29;20413;-67
2023/09/17 10:53:58;;;;;;;3.95;1.38;;;27.70;99.90;;;;;;4903083;29;20033;-68
2023/09/17 10:56:25;;;;;;;4.80;1.50;;;28.20;98.70;;;;;;4899217;29;20033;-68
2023/09/17 10:58:52;;;;;;;5.85;1.77;;;27.60;99.70;;;;;;4897780;29;20115;-68
2023/09/17 11:01:32;;;;;;;3.65;1.63;;;27.60;99.10;;;;;;4892119;29;20067;-68
2023/09/17 11:04:03;;;;;;;3.13;1.73;;;27.60;99.60;;;;;;4912718;29;20033;-68
2023/09/17 11:06:34;;;;;;;3.95;1.60;;;27.90;99.90;;;;;;4894860;29;20071;-68
2023/09/17 11:09:01;;;;;;;5.75;1.35;;;28.30;99.40;;;;;;4891061;29;20457;-67
2023/09/17 11:11:30;;;;;;;6.32;2.25;;;28.00;99.00;;;;;;4897639;29;20048;-67
2023/09/17 11:13:56;;;;;;;3.28;1.25;;;28.50;99.10;;;;;;4896825;29;20024;-68
2023/09/17 11:16:26;;;;;;;3.30;1.70;;;28.70;97.20;;;;;;4899394;29;20105;-68
2023/09/17 11:19:14;;;;;;;6.05;1.65;;;28.90;96.30;;;;;;4898831;29;20047;-68
2023/09/17 11:21:42;;;;;;;3.75;1.20;;;28.70;96.90;;;;;;4894812;29;20037;-69
2023/09/17 11:24:13;;;;;;;5.97;1.23;;;28.70;95.70;;;;;;4897723;29;20028;-69
2023/09/17 11:26:45;;;;;;;2.50;1.25;;;28.90;96.00;;;;;;4898787;29;20056;-68
2023/09/17 11:29:11;;;;;;;5.18;1.48;;;29.10;94.80;;;;;;4899040;29;20103;-68
2023/09/17 11:31:52;;;;;;;2.40;1.42;;;29.20;94.90;;;;;;4898431;29;20043;-68
2023/09/17 11:34:18;;;;;;;3.63;1.40;;;29.20;95.20;;;;;;4898646;29;20096;-69
2023/09/17 11:36:47;;;;;;;3.45;1.15;;;29.30;93.80;;;;;;4898454;29;20036;-68
2023/09/17 11:39:15;;;;;;;4.85;1.48;;;29.60;93.20;;;;;;4882251;29;20047;-67
2023/09/17 11:41:46;;;;;;;3.70;1.45;;;29.40;93.60;;;;;;4908846;29;20043;-68
2023/09/17 11:44:13;;;;;;;;;;;29.10;93.70;;;;;;4898697;29;20097;-68
2023/09/17 11:46:40;;;;;;;3.40;1.35;;;29.40;93.30;;;;;;4892658;29;19923;-68
2023/09/17 11:49:08;;;;;;;3.15;1.63;;;29.20;93.40;;;;;;4912665;29;20028;-67
2023/09/17 11:51:34;;;;;;;5.15;1.63;;;28.70;93.80;;;;;;4897718;29;20076;-67
2023/09/17 11:54:08;;;;;;;1.40;0.98;;;28.80;94.20;;;;;;4893511;29;20410;-67
2023/09/17 11:56:45;;;;;;;3.28;1.27;;;29.10;94.70;;;;;;4898519;29;20439;-67
2023/09/17 11:59:15;;;;;;;3.28;1.30;;;29.00;93.90;;;;;;4898050;29;20028;-67
2023/09/17 12:01:44;;;;;;;3.65;1.27;;;29.30;93.20;;;;;;4897358;29;20031;-67
2023/09/17 12:04:11;;;;;;;4.75;1.30;;;29.30;92.90;;;;;;4898129;29;20044;-67
2023/09/17 12:06:41;;;;;;;8.88;1.48;;;29.00;93.50;;;;;;4898237;29;20020;-67
2023/09/17 12:09:17;;;;;;;3.50;1.47;;;29.20;93.30;;;;;;4897966;29;20056;-68
2023/09/17 12:11:49;;;;;;;2.83;1.25;;;29.20;93.40;;;;;;4898335;29;20300;-67
2023/09/17 12:14:16;;;;;;;3.75;1.30;;;29.20;93.30;;;;;;4887420;29;20040;-67
2023/09/17 12:16:42;;;;;;;3.25;1.73;;;29.10;93.10;;;;;;4913122;29;20028;-67
2023/09/17 12:19:08;;;;;;;5.25;1.17;;;29.60;92.80;;;;;;4896189;29;20044;-67
2023/09/17 12:21:39;;;;;;;7.22;2.55;;;30.10;91.80;;;;;;4923103;29;20025;-67
2023/09/17 12:24:08;;;;;;;7.57;2.25;;;30.60;90.80;;;;;;4895392;29;20512;-66
2023/09/17 12:29:36;;;;;;;4.28;1.60;;;29.90;91.40;;;;;;4897960;29;20413;-66
2023/09/17 12:32:04;;;;;;;6.55;2.88;;;30.50;90.80;;;;;;4890616;29;20047;-67
2023/09/17 12:34:33;;;;;;;7.75;2.70;;;30.80;90.90;;;;;;4927817;29;20500;-67
2023/09/17 12:36:58;;;;;;;4.45;1.52;;;30.90;89.00;;;;;;4904021;29;20033;-67
2023/09/17 12:39:24;;;;;;;4.47;1.48;;;31.30;89.40;;;;;;4897962;29;20033;-67
2023/09/17 12:41:50;;;;;;;2.70;1.05;;;31.50;88.50;;;;;;4897475;29;20037;-67
2023/09/17 12:44:17;;;;;;;4.10;1.33;;;31.50;87.00;;;;;;4896170;29;20036;-71
2023/09/17 12:46:43;;;;;;;4.57;1.63;;;31.90;85.40;;;;;;4897170;29;20033;-66
2023/09/17 12:49:09;;;;;;;4.00;1.23;;;31.60;86.00;;;;;;4896177;29;20029;-66